Погода Борборемана неделю

Сан-Паулу, Бразилия

25 - 31 июля
  • 25июля
    Сегодня
    +15°
    +31°
    Ясно и безоблачно
    ВремяПогодаТемператураВлажностьДавлениеВетер, м/сВероятность осадков
    00:00Небольшая облачность+19°C47 %726 мм2.1 м/с5 %
    03:00Ясно и безоблачно+17°C60 %726 мм2.5 м/с5 %
    06:00Ясно и безоблачно+16°C70 %726 мм2.0 м/с5 %
    09:00Ясно и безоблачно+21°C48 %728 мм1.8 м/с5 %
    12:00Ясно и безоблачно+28°C31 %728 мм1.5 м/с5 %
    15:00Ясно и безоблачно+30°C23 %725 мм0.9 м/с5 %
    18:00Ясно и безоблачно+29°C30 %725 мм1.8 м/с5 %
    21:00Ясно и безоблачно+24°C43 %725 мм2.3 м/с5 %
  • 26июля
    Пятница
    +16°
    +31°
    Облачно с прояснениями
    ВремяПогодаТемператураВлажностьДавлениеВетер, м/сВероятность осадков
    00:00Ясно и безоблачно+20°C49 %725 мм2.4 м/с5 %
    03:00Небольшая облачность+17°C56 %723 мм2.2 м/с5 %
    06:00Ясно и безоблачно+17°C62 %724 мм2.2 м/с5 %
    09:00Облачно с прояснениями+21°C45 %726 мм2.0 м/с5 %
    12:00Облачно с прояснениями+28°C29 %726 мм2.5 м/с5 %
    15:00Облачно с прояснениями+31°C23 %724 мм1.1 м/с5 %
    18:00Облачно с прояснениями+27°C34 %724 мм1.5 м/с5 %
    21:00Облачно с прояснениями+24°C44 %725 мм2.0 м/с5 %
  • 27июля
    Суббота
    +16°
    +32°
    Практически безоблачно
    ВремяПогодаТемператураВлажностьДавлениеВетер, м/сВероятность осадков
    00:00Облачно с прояснениями+20°C49 %725 мм2.2 м/с5 %
    03:00Облачно с прояснениями+17°C54 %723 мм2.3 м/с5 %
    06:00Облачно с прояснениями+17°C57 %724 мм1.9 м/с5 %
    09:00Облачно с прояснениями+21°C45 %726 мм1.5 м/с5 %
    12:00Практически безоблачно+29°C28 %726 мм1.5 м/с5 %
    15:00Практически безоблачно+32°C22 %724 мм1.0 м/с5 %
    18:00Ясно и безоблачно+28°C32 %724 мм2.5 м/с5 %
    21:00Практически безоблачно+25°C41 %725 мм2.2 м/с5 %
  • 28июля
    Воскресенье
    +19°
    +34°
    Ясно и безоблачно
    ВремяПогодаТемператураВлажностьДавлениеВетер, м/сВероятность осадков
    00:00Ясно и безоблачно+22°C45 %725 мм2.5 м/с5 %
    03:00Ясно и безоблачно+19°C52 %724 мм1.9 м/с5 %
    06:00Ясно и безоблачно+17°C61 %724 мм1.7 м/с5 %
    09:00Ясно и безоблачно+21°C47 %726 мм1.1 м/с5 %
    12:00Ясно и безоблачно+31°C28 %726 мм2.6 м/с5 %
    15:00Ясно и безоблачно+34°C22 %724 мм2.4 м/с5 %
    18:00Ясно и безоблачно+30°C33 %724 мм2.4 м/с5 %
    21:00Ясно и безоблачно+27°C40 %724 мм2.2 м/с5 %
  • 29июля
    Понедельник
    +15°
    +34°
    Ясно и безоблачно
    ВремяПогодаТемператураВлажностьДавлениеВетер, м/сВероятность осадков
    00:00Ясно и безоблачно+22°C44 %724 мм2.3 м/с5 %
    03:00Ясно и безоблачно+21°C48 %723 мм2.7 м/с5 %
    06:00Ясно и безоблачно+21°C52 %724 мм1.6 м/с5 %
    09:00Ясно и безоблачно+23°C42 %726 мм1.8 м/с5 %
    12:00Ясно и безоблачно+32°C29 %726 мм2.6 м/с5 %
    15:00Ясно и безоблачно+34°C20 %724 мм3.3 м/с5 %
    18:00Ясно и безоблачно+30°C27 %724 мм2.2 м/с5 %
    21:00Ясно и безоблачно+24°C37 %724 мм2.6 м/с4 %
Мы используем cookies
Соглашаюсь